sensor_id;sensor_type;location;lat;lon;timestamp;P1;durP1;ratioP1;P2;durP2;ratioP2
23236;SDS011;11787;52.018;8.570;2023-04-08T00:01:27;11.65;;;8.80;;
23236;SDS011;11787;52.018;8.570;2023-04-08T00:03:53;11.13;;;8.95;;
23236;SDS011;11787;52.018;8.570;2023-04-08T00:06:18;12.25;;;8.73;;
23236;SDS011;11787;52.018;8.570;2023-04-08T00:08:44;10.43;;;8.35;;
23236;SDS011;11787;52.018;8.570;2023-04-08T00:11:10;11.23;;;8.45;;
23236;SDS011;11787;52.018;8.570;2023-04-08T00:13:35;10.45;;;8.18;;
23236;SDS011;11787;52.018;8.570;2023-04-08T00:16:01;9.93;;;7.82;;
23236;SDS011;11787;52.018;8.570;2023-04-08T00:18:27;13.95;;;8.70;;
23236;SDS011;11787;52.018;8.570;2023-04-08T00:20:53;10.27;;;9.05;;
23236;SDS011;11787;52.018;8.570;2023-04-08T00:23:19;11.73;;;8.45;;
23236;SDS011;11787;52.018;8.570;2023-04-08T00:25:45;10.45;;;8.27;;
23236;SDS011;11787;52.018;8.570;2023-04-08T00:28:11;11.85;;;8.52;;
23236;SDS011;11787;52.018;8.570;2023-04-08T00:30:36;9.82;;;8.18;;
23236;SDS011;11787;52.018;8.570;2023-04-08T00:33:02;12.55;;;8.30;;
23236;SDS011;11787;52.018;8.570;2023-04-08T00:35:28;10.30;;;7.60;;
23236;SDS011;11787;52.018;8.570;2023-04-08T00:37:53;9.60;;;8.27;;
23236;SDS011;11787;52.018;8.570;2023-04-08T00:40:19;12.10;;;8.25;;
23236;SDS011;11787;52.018;8.570;2023-04-08T00:42:45;9.68;;;7.78;;
23236;SDS011;11787;52.018;8.570;2023-04-08T00:45:10;12.15;;;8.20;;
23236;SDS011;11787;52.018;8.570;2023-04-08T00:47:37;10.10;;;7.50;;
23236;SDS011;11787;52.018;8.570;2023-04-08T00:50:02;9.88;;;7.75;;
23236;SDS011;11787;52.018;8.570;2023-04-08T00:52:28;9.75;;;7.80;;
23236;SDS011;11787;52.018;8.570;2023-04-08T00:54:54;9.82;;;7.72;;
23236;SDS011;11787;52.018;8.570;2023-04-08T00:57:20;9.48;;;6.88;;
23236;SDS011;11787;52.018;8.570;2023-04-08T00:59:45;8.60;;;7.13;;
23236;SDS011;11787;52.018;8.570;2023-04-08T01:07:31;9.15;;;7.03;;
23236;SDS011;11787;52.018;8.570;2023-04-08T01:09:58;9.50;;;6.50;;
23236;SDS011;11787;52.018;8.570;2023-04-08T01:12:32;9.38;;;6.85;;
23236;SDS011;11787;52.018;8.570;2023-04-08T01:15:05;8.18;;;6.97;;
23236;SDS011;11787;52.018;8.570;2023-04-08T01:17:32;8.98;;;6.07;;
23236;SDS011;11787;52.018;8.570;2023-04-08T01:20:00;7.97;;;6.90;;
23236;SDS011;11787;52.018;8.570;2023-04-08T01:22:31;7.90;;;6.32;;
23236;SDS011;11787;52.018;8.570;2023-04-08T01:25:09;9.40;;;6.93;;
23236;SDS011;11787;52.018;8.570;2023-04-08T01:27:40;9.52;;;6.85;;
23236;SDS011;11787;52.018;8.570;2023-04-08T01:30:07;10.77;;;6.38;;
23236;SDS011;11787;52.018;8.570;2023-04-08T01:32:34;8.27;;;6.72;;
23236;SDS011;11787;52.018;8.570;2023-04-08T01:35:01;8.82;;;6.28;;
23236;SDS011;11787;52.018;8.570;2023-04-08T01:37:28;7.57;;;6.32;;
23236;SDS011;11787;52.018;8.570;2023-04-08T01:39:55;8.05;;;6.07;;
23236;SDS011;11787;52.018;8.570;2023-04-08T01:42:24;8.85;;;6.22;;
23236;SDS011;11787;52.018;8.570;2023-04-08T01:44:52;8.40;;;6.10;;
23236;SDS011;11787;52.018;8.570;2023-04-08T01:47:21;7.47;;;5.75;;
23236;SDS011;11787;52.018;8.570;2023-04-08T01:49:48;6.88;;;5.60;;
23236;SDS011;11787;52.018;8.570;2023-04-08T01:52:15;7.35;;;6.07;;
23236;SDS011;11787;52.018;8.570;2023-04-08T01:54:43;8.02;;;6.40;;
23236;SDS011;11787;52.018;8.570;2023-04-08T01:57:11;8.25;;;6.20;;
23236;SDS011;11787;52.018;8.570;2023-04-08T01:59:41;7.60;;;5.60;;
23236;SDS011;11787;52.018;8.570;2023-04-08T02:02:09;8.32;;;6.18;;
23236;SDS011;11787;52.018;8.570;2023-04-08T02:04:37;8.10;;;6.35;;
23236;SDS011;11787;52.018;8.570;2023-04-08T02:07:02;7.53;;;6.30;;
23236;SDS011;11787;52.018;8.570;2023-04-08T02:09:29;8.88;;;6.35;;
23236;SDS011;11787;52.018;8.570;2023-04-08T02:11:55;8.13;;;6.30;;
23236;SDS011;11787;52.018;8.570;2023-04-08T02:14:21;7.90;;;5.80;;
23236;SDS011;11787;52.018;8.570;2023-04-08T02:19:29;7.25;;;5.72;;
23236;SDS011;11787;52.018;8.570;2023-04-08T02:22:08;11.18;;;6.75;;
23236;SDS011;11787;52.018;8.570;2023-04-08T02:24:41;6.82;;;5.88;;
23236;SDS011;11787;52.018;8.570;2023-04-08T02:27:08;8.25;;;5.82;;
23236;SDS011;11787;52.018;8.570;2023-04-08T02:29:34;6.38;;;5.03;;
23236;SDS011;11787;52.018;8.570;2023-04-08T02:32:01;7.03;;;5.30;;
23236;SDS011;11787;52.018;8.570;2023-04-08T02:34:29;7.85;;;5.53;;
23236;SDS011;11787;52.018;8.570;2023-04-08T02:36:55;6.45;;;5.03;;
23236;SDS011;11787;52.018;8.570;2023-04-08T02:39:21;8.73;;;4.75;;
23236;SDS011;11787;52.018;8.570;2023-04-08T02:41:55;6.95;;;5.22;;
23236;SDS011;11787;52.018;8.570;2023-04-08T02:44:20;6.18;;;5.00;;
23236;SDS011;11787;52.018;8.570;2023-04-08T02:46:46;6.90;;;4.65;;
23236;SDS011;11787;52.018;8.570;2023-04-08T02:49:11;5.80;;;4.45;;
23236;SDS011;11787;52.018;8.570;2023-04-08T02:51:37;6.25;;;4.15;;
23236;SDS011;11787;52.018;8.570;2023-04-08T02:54:02;7.10;;;5.22;;
23236;SDS011;11787;52.018;8.570;2023-04-08T02:56:28;6.13;;;4.45;;
23236;SDS011;11787;52.018;8.570;2023-04-08T02:58:54;5.78;;;4.80;;
23236;SDS011;11787;52.018;8.570;2023-04-08T03:01:20;5.13;;;3.75;;
23236;SDS011;11787;52.018;8.570;2023-04-08T03:03:46;7.00;;;5.15;;
23236;SDS011;11787;52.018;8.570;2023-04-08T03:06:11;6.85;;;4.90;;
23236;SDS011;11787;52.018;8.570;2023-04-08T03:08:37;4.40;;;4.00;;
23236;SDS011;11787;52.018;8.570;2023-04-08T03:11:02;5.60;;;4.95;;
23236;SDS011;11787;52.018;8.570;2023-04-08T03:13:28;5.28;;;4.07;;
23236;SDS011;11787;52.018;8.570;2023-04-08T03:15:54;6.28;;;5.13;;
23236;SDS011;11787;52.018;8.570;2023-04-08T03:18:19;5.55;;;4.65;;
23236;SDS011;11787;52.018;8.570;2023-04-08T03:20:45;6.43;;;5.60;;
23236;SDS011;11787;52.018;8.570;2023-04-08T03:23:11;6.70;;;5.38;;
23236;SDS011;11787;52.018;8.570;2023-04-08T03:25:36;5.88;;;5.20;;
23236;SDS011;11787;52.018;8.570;2023-04-08T03:28:02;6.78;;;5.30;;
23236;SDS011;11787;52.018;8.570;2023-04-08T03:30:27;6.25;;;4.85;;
23236;SDS011;11787;52.018;8.570;2023-04-08T03:32:53;8.60;;;6.03;;
23236;SDS011;11787;52.018;8.570;2023-04-08T03:35:18;8.32;;;6.13;;
23236;SDS011;11787;52.018;8.570;2023-04-08T03:37:44;7.13;;;5.90;;
23236;SDS011;11787;52.018;8.570;2023-04-08T03:40:11;6.78;;;6.10;;
23236;SDS011;11787;52.018;8.570;2023-04-08T03:42:36;7.43;;;6.07;;
23236;SDS011;11787;52.018;8.570;2023-04-08T03:45:02;7.25;;;5.95;;
23236;SDS011;11787;52.018;8.570;2023-04-08T03:47:29;7.00;;;5.88;;
23236;SDS011;11787;52.018;8.570;2023-04-08T03:49:54;7.88;;;6.25;;
23236;SDS011;11787;52.018;8.570;2023-04-08T03:52:20;6.70;;;5.88;;
23236;SDS011;11787;52.018;8.570;2023-04-08T03:54:46;7.47;;;6.10;;
23236;SDS011;11787;52.018;8.570;2023-04-08T03:57:12;7.25;;;6.22;;
23236;SDS011;11787;52.018;8.570;2023-04-08T03:59:37;8.23;;;6.55;;
23236;SDS011;11787;52.018;8.570;2023-04-08T04:02:05;8.73;;;7.40;;
23236;SDS011;11787;52.018;8.570;2023-04-08T04:04:30;9.02;;;7.72;;
23236;SDS011;11787;52.018;8.570;2023-04-08T04:06:56;9.20;;;7.32;;
23236;SDS011;11787;52.018;8.570;2023-04-08T04:09:21;8.63;;;7.07;;
23236;SDS011;11787;52.018;8.570;2023-04-08T04:11:47;9.23;;;7.72;;
23236;SDS011;11787;52.018;8.570;2023-04-08T04:14:13;9.70;;;7.75;;
23236;SDS011;11787;52.018;8.570;2023-04-08T04:16:38;9.88;;;8.32;;
23236;SDS011;11787;52.018;8.570;2023-04-08T04:19:04;10.50;;;9.20;;
23236;SDS011;11787;52.018;8.570;2023-04-08T04:21:30;10.10;;;8.50;;
23236;SDS011;11787;52.018;8.570;2023-04-08T04:23:55;10.35;;;8.32;;
23236;SDS011;11787;52.018;8.570;2023-04-08T04:26:21;10.05;;;8.73;;
23236;SDS011;11787;52.018;8.570;2023-04-08T04:28:47;10.55;;;9.15;;
23236;SDS011;11787;52.018;8.570;2023-04-08T04:31:21;10.13;;;8.38;;
23236;SDS011;11787;52.018;8.570;2023-04-08T04:33:52;10.93;;;8.50;;
23236;SDS011;11787;52.018;8.570;2023-04-08T04:36:18;11.88;;;9.70;;
23236;SDS011;11787;52.018;8.570;2023-04-08T04:38:44;11.32;;;9.60;;
23236;SDS011;11787;52.018;8.570;2023-04-08T04:41:09;12.70;;;9.20;;
23236;SDS011;11787;52.018;8.570;2023-04-08T04:43:35;11.52;;;9.55;;
23236;SDS011;11787;52.018;8.570;2023-04-08T04:46:01;11.10;;;9.40;;
23236;SDS011;11787;52.018;8.570;2023-04-08T04:48:30;9.80;;;8.70;;
23236;SDS011;11787;52.018;8.570;2023-04-08T04:51:00;11.68;;;10.32;;
23236;SDS011;11787;52.018;8.570;2023-04-08T04:53:29;11.25;;;9.30;;
23236;SDS011;11787;52.018;8.570;2023-04-08T04:55:55;10.23;;;9.05;;
23236;SDS011;11787;52.018;8.570;2023-04-08T04:58:21;9.68;;;8.68;;
23236;SDS011;11787;52.018;8.570;2023-04-08T05:00:46;10.88;;;8.88;;
23236;SDS011;11787;52.018;8.570;2023-04-08T05:03:12;12.35;;;9.40;;
23236;SDS011;11787;52.018;8.570;2023-04-08T05:05:38;11.02;;;8.52;;
23236;SDS011;11787;52.018;8.570;2023-04-08T05:08:03;10.18;;;8.73;;
23236;SDS011;11787;52.018;8.570;2023-04-08T05:10:31;13.07;;;8.43;;
23236;SDS011;11787;52.018;8.570;2023-04-08T05:12:56;9.32;;;8.15;;
23236;SDS011;11787;52.018;8.570;2023-04-08T05:15:22;9.40;;;7.47;;
23236;SDS011;11787;52.018;8.570;2023-04-08T05:17:47;7.90;;;7.07;;
23236;SDS011;11787;52.018;8.570;2023-04-08T05:20:13;9.20;;;6.68;;
23236;SDS011;11787;52.018;8.570;2023-04-08T05:22:38;8.65;;;7.10;;
23236;SDS011;11787;52.018;8.570;2023-04-08T05:25:04;8.60;;;6.88;;
23236;SDS011;11787;52.018;8.570;2023-04-08T05:27:30;8.45;;;7.47;;
23236;SDS011;11787;52.018;8.570;2023-04-08T05:29:56;7.60;;;6.53;;
23236;SDS011;11787;52.018;8.570;2023-04-08T05:32:21;8.80;;;6.90;;
23236;SDS011;11787;52.018;8.570;2023-04-08T05:34:47;8.27;;;7.03;;
23236;SDS011;11787;52.018;8.570;2023-04-08T05:37:12;8.00;;;6.93;;
23236;SDS011;11787;52.018;8.570;2023-04-08T05:39:38;9.68;;;6.75;;
23236;SDS011;11787;52.018;8.570;2023-04-08T05:42:04;7.65;;;5.90;;
23236;SDS011;11787;52.018;8.570;2023-04-08T05:44:29;7.30;;;6.50;;
23236;SDS011;11787;52.018;8.570;2023-04-08T05:46:55;7.40;;;6.15;;
23236;SDS011;11787;52.018;8.570;2023-04-08T05:49:21;8.10;;;6.00;;
23236;SDS011;11787;52.018;8.570;2023-04-08T05:51:47;7.97;;;6.38;;
23236;SDS011;11787;52.018;8.570;2023-04-08T05:54:13;8.00;;;6.70;;
23236;SDS011;11787;52.018;8.570;2023-04-08T05:56:38;7.30;;;6.13;;
23236;SDS011;11787;52.018;8.570;2023-04-08T05:59:04;6.75;;;6.05;;
23236;SDS011;11787;52.018;8.570;2023-04-08T06:01:29;7.47;;;6.68;;
23236;SDS011;11787;52.018;8.570;2023-04-08T06:03:55;8.15;;;6.43;;
23236;SDS011;11787;52.018;8.570;2023-04-08T06:06:21;8.05;;;7.05;;
23236;SDS011;11787;52.018;8.570;2023-04-08T06:08:47;8.80;;;6.78;;
23236;SDS011;11787;52.018;8.570;2023-04-08T06:11:12;11.73;;;7.28;;
23236;SDS011;11787;52.018;8.570;2023-04-08T06:13:38;9.30;;;6.50;;
23236;SDS011;11787;52.018;8.570;2023-04-08T06:16:11;7.57;;;6.80;;
23236;SDS011;11787;52.018;8.570;2023-04-08T06:18:41;10.88;;;7.18;;
23236;SDS011;11787;52.018;8.570;2023-04-08T06:21:07;7.40;;;6.60;;
23236;SDS011;11787;52.018;8.570;2023-04-08T06:23:33;9.40;;;6.50;;
23236;SDS011;11787;52.018;8.570;2023-04-08T06:25:59;11.63;;;7.97;;
23236;SDS011;11787;52.018;8.570;2023-04-08T06:28:25;10.75;;;7.93;;
23236;SDS011;11787;52.018;8.570;2023-04-08T06:30:50;10.38;;;8.00;;
23236;SDS011;11787;52.018;8.570;2023-04-08T06:33:16;9.40;;;7.32;;
23236;SDS011;11787;52.018;8.570;2023-04-08T06:35:41;10.48;;;7.75;;
23236;SDS011;11787;52.018;8.570;2023-04-08T06:38:07;8.38;;;7.13;;
23236;SDS011;11787;52.018;8.570;2023-04-08T06:40:32;9.88;;;7.80;;
23236;SDS011;11787;52.018;8.570;2023-04-08T06:42:58;10.75;;;7.70;;
23236;SDS011;11787;52.018;8.570;2023-04-08T06:45:24;13.95;;;11.07;;
23236;SDS011;11787;52.018;8.570;2023-04-08T06:47:50;14.10;;;10.98;;
23236;SDS011;11787;52.018;8.570;2023-04-08T06:50:15;11.55;;;9.23;;
23236;SDS011;11787;52.018;8.570;2023-04-08T06:52:41;11.57;;;8.85;;
23236;SDS011;11787;52.018;8.570;2023-04-08T06:55:06;17.27;;;11.90;;
23236;SDS011;11787;52.018;8.570;2023-04-08T06:57:32;14.43;;;9.93;;
23236;SDS011;11787;52.018;8.570;2023-04-08T06:59:58;14.82;;;10.10;;
23236;SDS011;11787;52.018;8.570;2023-04-08T07:02:24;16.85;;;10.57;;
23236;SDS011;11787;52.018;8.570;2023-04-08T07:04:50;11.35;;;9.38;;
23236;SDS011;11787;52.018;8.570;2023-04-08T07:07:15;10.15;;;8.63;;
23236;SDS011;11787;52.018;8.570;2023-04-08T07:09:41;11.48;;;9.27;;
23236;SDS011;11787;52.018;8.570;2023-04-08T07:12:09;12.98;;;9.00;;
23236;SDS011;11787;52.018;8.570;2023-04-08T07:14:35;11.50;;;8.93;;
23236;SDS011;11787;52.018;8.570;2023-04-08T07:17:01;10.13;;;8.25;;
23236;SDS011;11787;52.018;8.570;2023-04-08T07:19:27;11.35;;;8.48;;
23236;SDS011;11787;52.018;8.570;2023-04-08T07:21:52;10.52;;;8.63;;
23236;SDS011;11787;52.018;8.570;2023-04-08T07:24:18;10.02;;;7.88;;
23236;SDS011;11787;52.018;8.570;2023-04-08T07:26:43;9.15;;;7.82;;
23236;SDS011;11787;52.018;8.570;2023-04-08T07:29:09;10.55;;;7.82;;
23236;SDS011;11787;52.018;8.570;2023-04-08T07:31:35;11.07;;;7.80;;
23236;SDS011;11787;52.018;8.570;2023-04-08T07:34:00;9.75;;;8.40;;
23236;SDS011;11787;52.018;8.570;2023-04-08T07:36:26;10.77;;;8.93;;
23236;SDS011;11787;52.018;8.570;2023-04-08T07:38:52;12.55;;;8.32;;
23236;SDS011;11787;52.018;8.570;2023-04-08T07:41:17;11.63;;;8.57;;
23236;SDS011;11787;52.018;8.570;2023-04-08T07:43:43;11.43;;;8.88;;
23236;SDS011;11787;52.018;8.570;2023-04-08T07:46:09;10.23;;;8.10;;
23236;SDS011;11787;52.018;8.570;2023-04-08T07:48:34;11.45;;;8.63;;
23236;SDS011;11787;52.018;8.570;2023-04-08T07:51:07;12.48;;;10.07;;
23236;SDS011;11787;52.018;8.570;2023-04-08T07:53:34;10.93;;;8.80;;
23236;SDS011;11787;52.018;8.570;2023-04-08T07:56:00;11.18;;;8.27;;
23236;SDS011;11787;52.018;8.570;2023-04-08T07:58:28;12.48;;;9.00;;
23236;SDS011;11787;52.018;8.570;2023-04-08T08:00:53;12.48;;;9.30;;
23236;SDS011;11787;52.018;8.570;2023-04-08T08:03:21;11.60;;;8.90;;
23236;SDS011;11787;52.018;8.570;2023-04-08T08:05:46;12.60;;;9.93;;
23236;SDS011;11787;52.018;8.570;2023-04-08T08:08:12;12.82;;;9.77;;
23236;SDS011;11787;52.018;8.570;2023-04-08T08:10:38;12.32;;;9.27;;
23236;SDS011;11787;52.018;8.570;2023-04-08T08:13:04;14.68;;;9.23;;
23236;SDS011;11787;52.018;8.570;2023-04-08T08:15:31;13.68;;;9.57;;
23236;SDS011;11787;52.018;8.570;2023-04-08T08:17:57;12.73;;;9.52;;
23236;SDS011;11787;52.018;8.570;2023-04-08T08:20:23;14.82;;;9.88;;
23236;SDS011;11787;52.018;8.570;2023-04-08T08:22:48;14.15;;;10.15;;
23236;SDS011;11787;52.018;8.570;2023-04-08T08:25:14;16.80;;;11.02;;
23236;SDS011;11787;52.018;8.570;2023-04-08T08:27:40;12.25;;;9.75;;
23236;SDS011;11787;52.018;8.570;2023-04-08T08:30:07;13.18;;;10.60;;
23236;SDS011;11787;52.018;8.570;2023-04-08T08:32:33;14.20;;;10.77;;
23236;SDS011;11787;52.018;8.570;2023-04-08T08:34:59;13.90;;;10.35;;
23236;SDS011;11787;52.018;8.570;2023-04-08T08:37:25;14.38;;;10.35;;
23236;SDS011;11787;52.018;8.570;2023-04-08T08:39:51;13.68;;;10.27;;
23236;SDS011;11787;52.018;8.570;2023-04-08T08:42:17;15.07;;;10.63;;
23236;SDS011;11787;52.018;8.570;2023-04-08T08:44:44;13.90;;;10.93;;
23236;SDS011;11787;52.018;8.570;2023-04-08T08:47:10;15.25;;;10.43;;
23236;SDS011;11787;52.018;8.570;2023-04-08T08:49:35;14.68;;;11.45;;
23236;SDS011;11787;52.018;8.570;2023-04-08T08:52:01;18.30;;;11.73;;
23236;SDS011;11787;52.018;8.570;2023-04-08T08:54:27;16.80;;;11.75;;
23236;SDS011;11787;52.018;8.570;2023-04-08T08:56:52;16.23;;;12.50;;
23236;SDS011;11787;52.018;8.570;2023-04-08T08:59:18;16.58;;;11.88;;
23236;SDS011;11787;52.018;8.570;2023-04-08T09:01:44;15.45;;;12.00;;
23236;SDS011;11787;52.018;8.570;2023-04-08T09:06:37;18.77;;;13.25;;
23236;SDS011;11787;52.018;8.570;2023-04-08T09:09:03;18.55;;;12.70;;
23236;SDS011;11787;52.018;8.570;2023-04-08T09:11:36;16.52;;;11.95;;
23236;SDS011;11787;52.018;8.570;2023-04-08T09:14:03;20.58;;;11.38;;
23236;SDS011;11787;52.018;8.570;2023-04-08T09:16:30;17.35;;;11.93;;
23236;SDS011;11787;52.018;8.570;2023-04-08T09:19:06;16.98;;;11.77;;
23236;SDS011;11787;52.018;8.570;2023-04-08T09:21:34;19.25;;;12.30;;
23236;SDS011;11787;52.018;8.570;2023-04-08T09:24:00;17.88;;;13.43;;
23236;SDS011;11787;52.018;8.570;2023-04-08T09:26:25;19.17;;;13.32;;
23236;SDS011;11787;52.018;8.570;2023-04-08T09:31:24;18.33;;;13.57;;
23236;SDS011;11787;52.018;8.570;2023-04-08T09:33:52;18.27;;;13.60;;
23236;SDS011;11787;52.018;8.570;2023-04-08T09:36:22;22.23;;;14.18;;
23236;SDS011;11787;52.018;8.570;2023-04-08T09:38:48;76.88;;;23.00;;
23236;SDS011;11787;52.018;8.570;2023-04-08T09:41:14;25.30;;;14.93;;
23236;SDS011;11787;52.018;8.570;2023-04-08T09:43:45;30.63;;;16.75;;
23236;SDS011;11787;52.018;8.570;2023-04-08T09:46:17;20.65;;;14.13;;
23236;SDS011;11787;52.018;8.570;2023-04-08T09:48:53;19.77;;;14.20;;
23236;SDS011;11787;52.018;8.570;2023-04-08T09:51:25;19.73;;;13.10;;
23236;SDS011;11787;52.018;8.570;2023-04-08T09:54:00;20.00;;;13.27;;
23236;SDS011;11787;52.018;8.570;2023-04-08T09:56:34;19.10;;;14.25;;
23236;SDS011;11787;52.018;8.570;2023-04-08T09:59:08;21.25;;;13.55;;
23236;SDS011;11787;52.018;8.570;2023-04-08T10:01:38;20.58;;;14.30;;
23236;SDS011;11787;52.018;8.570;2023-04-08T10:04:09;18.33;;;13.82;;
23236;SDS011;11787;52.018;8.570;2023-04-08T10:06:39;20.13;;;14.38;;
23236;SDS011;11787;52.018;8.570;2023-04-08T10:09:05;23.92;;;15.05;;
23236;SDS011;11787;52.018;8.570;2023-04-08T10:11:31;21.77;;;14.38;;
23236;SDS011;11787;52.018;8.570;2023-04-08T10:13:58;19.13;;;13.52;;
23236;SDS011;11787;52.018;8.570;2023-04-08T10:16:24;17.35;;;13.40;;
23236;SDS011;11787;52.018;8.570;2023-04-08T10:18:51;23.30;;;14.80;;
23236;SDS011;11787;52.018;8.570;2023-04-08T10:24:07;23.37;;;14.27;;
23236;SDS011;11787;52.018;8.570;2023-04-08T10:26:35;32.80;;;17.00;;
23236;SDS011;11787;52.018;8.570;2023-04-08T10:31:42;18.50;;;13.10;;
23236;SDS011;11787;52.018;8.570;2023-04-08T10:34:22;19.98;;;14.27;;
23236;SDS011;11787;52.018;8.570;2023-04-08T10:36:50;28.77;;;16.52;;
23236;SDS011;11787;52.018;8.570;2023-04-08T10:39:16;20.30;;;14.38;;
23236;SDS011;11787;52.018;8.570;2023-04-08T10:41:45;22.45;;;15.55;;
23236;SDS011;11787;52.018;8.570;2023-04-08T10:44:15;18.10;;;13.45;;
23236;SDS011;11787;52.018;8.570;2023-04-08T10:46:44;20.38;;;14.60;;
23236;SDS011;11787;52.018;8.570;2023-04-08T10:49:10;31.65;;;17.30;;
23236;SDS011;11787;52.018;8.570;2023-04-08T10:51:37;30.80;;;17.05;;
23236;SDS011;11787;52.018;8.570;2023-04-08T10:54:07;23.08;;;15.20;;
23236;SDS011;11787;52.018;8.570;2023-04-08T10:56:34;60.50;;;29.38;;
23236;SDS011;11787;52.018;8.570;2023-04-08T10:59:00;55.67;;;27.40;;
23236;SDS011;11787;52.018;8.570;2023-04-08T11:01:27;129.77;;;34.33;;
23236;SDS011;11787;52.018;8.570;2023-04-08T11:04:06;65.88;;;26.52;;
23236;SDS011;11787;52.018;8.570;2023-04-08T11:06:35;46.80;;;22.55;;
23236;SDS011;11787;52.018;8.570;2023-04-08T11:09:02;130.80;;;37.35;;
23236;SDS011;11787;52.018;8.570;2023-04-08T11:11:28;52.60;;;25.23;;
23236;SDS011;11787;52.018;8.570;2023-04-08T11:13:55;24.73;;;16.33;;
23236;SDS011;11787;52.018;8.570;2023-04-08T11:16:21;34.58;;;18.52;;
23236;SDS011;11787;52.018;8.570;2023-04-08T11:18:47;28.80;;;15.63;;
23236;SDS011;11787;52.018;8.570;2023-04-08T11:21:15;24.30;;;18.63;;
23236;SDS011;11787;52.018;8.570;2023-04-08T11:23:41;22.42;;;15.82;;
23236;SDS011;11787;52.018;8.570;2023-04-08T11:26:07;21.30;;;16.47;;
23236;SDS011;11787;52.018;8.570;2023-04-08T11:28:34;29.33;;;21.20;;
23236;SDS011;11787;52.018;8.570;2023-04-08T11:31:00;25.80;;;17.73;;
23236;SDS011;11787;52.018;8.570;2023-04-08T11:33:29;24.25;;;16.80;;
23236;SDS011;11787;52.018;8.570;2023-04-08T11:35:56;23.67;;;17.23;;
23236;SDS011;11787;52.018;8.570;2023-04-08T11:38:22;25.48;;;18.50;;
23236;SDS011;11787;52.018;8.570;2023-04-08T11:40:52;23.60;;;16.35;;
23236;SDS011;11787;52.018;8.570;2023-04-08T11:43:18;24.27;;;17.20;;
23236;SDS011;11787;52.018;8.570;2023-04-08T11:45:44;27.08;;;18.70;;
23236;SDS011;11787;52.018;8.570;2023-04-08T11:50:36;24.40;;;16.58;;
23236;SDS011;11787;52.018;8.570;2023-04-08T11:53:01;22.23;;;16.02;;
23236;SDS011;11787;52.018;8.570;2023-04-08T11:55:28;25.35;;;17.52;;
23236;SDS011;11787;52.018;8.570;2023-04-08T11:57:55;23.45;;;15.75;;
23236;SDS011;11787;52.018;8.570;2023-04-08T12:00:22;25.90;;;17.00;;
23236;SDS011;11787;52.018;8.570;2023-04-08T12:02:48;23.85;;;16.02;;
23236;SDS011;11787;52.018;8.570;2023-04-08T12:05:15;25.67;;;17.88;;
23236;SDS011;11787;52.018;8.570;2023-04-08T12:07:41;23.13;;;16.88;;
23236;SDS011;11787;52.018;8.570;2023-04-08T12:10:08;24.27;;;16.20;;
23236;SDS011;11787;52.018;8.570;2023-04-08T12:12:35;22.90;;;16.27;;
23236;SDS011;11787;52.018;8.570;2023-04-08T12:15:01;25.00;;;17.58;;
23236;SDS011;11787;52.018;8.570;2023-04-08T12:17:26;23.40;;;16.70;;
23236;SDS011;11787;52.018;8.570;2023-04-08T12:19:52;23.48;;;17.10;;
23236;SDS011;11787;52.018;8.570;2023-04-08T12:22:17;21.48;;;16.48;;
23236;SDS011;11787;52.018;8.570;2023-04-08T12:24:43;21.88;;;16.25;;
23236;SDS011;11787;52.018;8.570;2023-04-08T12:27:09;21.58;;;15.85;;
23236;SDS011;11787;52.018;8.570;2023-04-08T12:29:35;25.25;;;16.55;;
23236;SDS011;11787;52.018;8.570;2023-04-08T12:32:00;21.50;;;15.93;;
23236;SDS011;11787;52.018;8.570;2023-04-08T12:34:26;20.70;;;16.23;;
23236;SDS011;11787;52.018;8.570;2023-04-08T12:36:52;21.13;;;15.65;;
23236;SDS011;11787;52.018;8.570;2023-04-08T12:39:19;22.40;;;16.52;;
23236;SDS011;11787;52.018;8.570;2023-04-08T12:41:45;24.17;;;16.58;;
23236;SDS011;11787;52.018;8.570;2023-04-08T12:44:10;22.92;;;17.10;;
23236;SDS011;11787;52.018;8.570;2023-04-08T12:46:36;27.17;;;17.15;;
23236;SDS011;11787;52.018;8.570;2023-04-08T12:49:02;22.50;;;16.73;;
23236;SDS011;11787;52.018;8.570;2023-04-08T12:51:27;21.00;;;16.52;;
23236;SDS011;11787;52.018;8.570;2023-04-08T12:53:53;24.27;;;16.70;;
23236;SDS011;11787;52.018;8.570;2023-04-08T12:56:19;19.85;;;15.30;;
23236;SDS011;11787;52.018;8.570;2023-04-08T12:58:45;20.85;;;16.33;;
23236;SDS011;11787;52.018;8.570;2023-04-08T13:01:11;22.73;;;16.15;;
23236;SDS011;11787;52.018;8.570;2023-04-08T13:03:36;24.80;;;16.25;;
23236;SDS011;11787;52.018;8.570;2023-04-08T13:06:02;20.38;;;16.05;;
23236;SDS011;11787;52.018;8.570;2023-04-08T13:08:28;21.55;;;15.52;;
23236;SDS011;11787;52.018;8.570;2023-04-08T13:10:53;23.23;;;16.63;;
23236;SDS011;11787;52.018;8.570;2023-04-08T13:13:19;21.73;;;15.45;;
23236;SDS011;11787;52.018;8.570;2023-04-08T13:15:45;20.80;;;15.30;;
23236;SDS011;11787;52.018;8.570;2023-04-08T13:18:11;19.70;;;14.70;;
23236;SDS011;11787;52.018;8.570;2023-04-08T13:20:37;20.67;;;16.27;;
23236;SDS011;11787;52.018;8.570;2023-04-08T13:23:03;21.65;;;15.65;;
23236;SDS011;11787;52.018;8.570;2023-04-08T13:25:28;22.50;;;15.90;;
23236;SDS011;11787;52.018;8.570;2023-04-08T13:27:54;24.48;;;15.38;;
23236;SDS011;11787;52.018;8.570;2023-04-08T13:30:20;22.73;;;15.57;;
23236;SDS011;11787;52.018;8.570;2023-04-08T13:32:45;26.42;;;15.85;;
23236;SDS011;11787;52.018;8.570;2023-04-08T13:35:11;23.65;;;15.02;;
23236;SDS011;11787;52.018;8.570;2023-04-08T13:56:47;24.02;;;15.90;;
23236;SDS011;11787;52.018;8.570;2023-04-08T13:59:13;21.95;;;16.40;;
23236;SDS011;11787;52.018;8.570;2023-04-08T14:01:39;20.58;;;14.05;;
23236;SDS011;11787;52.018;8.570;2023-04-08T14:04:05;23.33;;;15.95;;
23236;SDS011;11787;52.018;8.570;2023-04-08T14:06:30;21.58;;;16.13;;
23236;SDS011;11787;52.018;8.570;2023-04-08T14:08:56;21.25;;;15.05;;
23236;SDS011;11787;52.018;8.570;2023-04-08T14:11:22;24.50;;;16.20;;
23236;SDS011;11787;52.018;8.570;2023-04-08T14:13:47;21.73;;;15.65;;
23236;SDS011;11787;52.018;8.570;2023-04-08T14:16:13;19.90;;;14.48;;
23236;SDS011;11787;52.018;8.570;2023-04-08T14:18:39;20.45;;;14.02;;
23236;SDS011;11787;52.018;8.570;2023-04-08T14:21:04;19.67;;;14.55;;
23236;SDS011;11787;52.018;8.570;2023-04-08T14:23:31;19.88;;;15.60;;
23236;SDS011;11787;52.018;8.570;2023-04-08T14:25:56;21.35;;;15.32;;
23236;SDS011;11787;52.018;8.570;2023-04-08T14:28:22;17.73;;;14.13;;
23236;SDS011;11787;52.018;8.570;2023-04-08T14:30:47;23.05;;;15.35;;
23236;SDS011;11787;52.018;8.570;2023-04-08T14:33:13;21.80;;;15.65;;
23236;SDS011;11787;52.018;8.570;2023-04-08T14:35:39;18.85;;;14.55;;
23236;SDS011;11787;52.018;8.570;2023-04-08T14:38:04;19.55;;;14.95;;
23236;SDS011;11787;52.018;8.570;2023-04-08T14:40:30;19.90;;;14.48;;
23236;SDS011;11787;52.018;8.570;2023-04-08T14:42:55;18.73;;;14.65;;
23236;SDS011;11787;52.018;8.570;2023-04-08T14:45:21;21.42;;;15.30;;
23236;SDS011;11787;52.018;8.570;2023-04-08T14:47:46;19.38;;;15.15;;
23236;SDS011;11787;52.018;8.570;2023-04-08T14:50:12;16.60;;;13.23;;
23236;SDS011;11787;52.018;8.570;2023-04-08T14:52:38;18.48;;;15.20;;
23236;SDS011;11787;52.018;8.570;2023-04-08T14:55:03;18.70;;;13.93;;
23236;SDS011;11787;52.018;8.570;2023-04-08T14:57:29;18.35;;;14.63;;
23236;SDS011;11787;52.018;8.570;2023-04-08T14:59:55;19.65;;;14.30;;
23236;SDS011;11787;52.018;8.570;2023-04-08T15:02:21;19.08;;;13.77;;
23236;SDS011;11787;52.018;8.570;2023-04-08T15:04:46;20.85;;;14.57;;
23236;SDS011;11787;52.018;8.570;2023-04-08T15:07:12;20.60;;;14.80;;
23236;SDS011;11787;52.018;8.570;2023-04-08T15:09:38;19.92;;;14.43;;